Time;durP1;ratioP1;P1;durP2;ratioP2;P2;SDS_P1;SDS_P2;PMS_P1;PMS_P2;Temp;Humidity;BMP_temperature;BMP_pressure;BME280_temperature;BME280_humidity;BME280_pressure;Samples;Min_cycle;Max_cycle;Signal;HPM_P1;HPM_P2
2022/04/20 00:01:02;;;;;;;6.18;3.25;;;;;;;7.28;59.40;99473.69;5012817;28;20111;-76
2022/04/20 00:03:27;;;;;;;5.13;3.30;;;;;;;7.15;59.14;99480.69;5023542;28;20090;-73
2022/04/20 00:05:52;;;;;;;5.32;3.40;;;;;;;7.21;59.12;99483.84;5002979;28;20554;-74
2022/04/20 00:08:16;;;;;;;5.80;3.47;;;;;;;7.06;59.98;99494.47;5030440;28;20045;-74
2022/04/20 00:10:41;;;;;;;5.40;4.18;;;;;;;7.09;59.07;99476.59;5029616;28;20048;-75
2022/04/20 00:13:06;;;;;;;8.98;3.55;;;;;;;7.08;59.08;99482.84;5023948;28;20048;-71
2022/04/20 00:15:30;;;;;;;8.40;4.20;;;;;;;6.98;59.24;99484.34;5008032;28;20119;-73
2022/04/20 00:17:55;;;;;;;4.57;2.58;;;;;;;7.21;58.00;99486.47;5022873;28;20073;-79
2022/04/20 00:20:20;;;;;;;6.35;3.75;;;;;;;7.10;58.23;99470.38;5027400;28;20041;-75
2022/04/20 00:22:45;;;;;;;5.95;3.05;;;;;;;7.23;57.77;99483.72;5023012;28;20055;-78
2022/04/20 00:25:10;;;;;;;4.70;3.38;;;;;;;7.17;57.68;99473.50;5022692;28;20045;-75
2022/04/20 00:27:37;;;;;;;5.30;3.10;;;;;;;7.02;57.90;99483.19;5020237;28;20389;-78
2022/04/20 00:30:08;;;;;;;5.80;3.30;;;;;;;6.98;58.13;99473.75;4998343;28;20136;-72
2022/04/20 00:32:33;;;;;;;5.05;3.60;;;;;;;6.89;57.52;99475.13;5013244;28;20156;-75
2022/04/20 00:34:58;;;;;;;5.30;3.65;;;;;;;6.87;57.61;99465.59;5011157;28;20055;-69
2022/04/20 00:37:23;;;;;;;4.30;2.78;;;;;;;6.87;57.91;99476.19;5016601;28;20702;-74
2022/04/20 00:39:48;;;;;;;7.18;3.33;;;;;;;6.98;56.64;99480.84;4994674;28;20052;-74
2022/04/20 00:42:13;;;;;;;14.68;3.90;;;;;;;7.01;55.64;99467.38;5021851;28;20044;-75
2022/04/20 00:44:40;;;;;;;4.97;3.60;;;;;;;6.96;55.98;99474.78;5003096;28;20041;-77
2022/04/20 00:47:06;;;;;;;4.72;3.10;;;;;;;6.90;56.32;99481.28;4991873;28;20041;-78
2022/04/20 00:49:34;;;;;;;4.03;3.00;;;;;;;6.95;55.22;99473.06;5015312;28;20514;-74
2022/04/20 00:52:01;;;;;;;5.07;3.10;;;;;;;6.98;55.15;99487.00;5008729;28;20041;-76
2022/04/20 00:54:27;;;;;;;3.80;2.80;;;;;;;6.83;55.94;99487.88;5000683;28;20040;-78
2022/04/20 00:56:52;;;;;;;5.57;2.83;;;;;;;6.74;55.98;99485.78;5020274;28;20091;-81
2022/04/20 00:59:23;;;;;;;3.95;2.75;;;;;;;6.81;55.55;99482.69;5016348;28;20041;-72
2022/04/20 01:01:49;;;;;;;3.67;2.80;;;;;;;6.65;55.79;99479.22;4993750;28;20032;-77
2022/04/20 01:04:14;;;;;;;2.67;2.35;;;;;;;6.61;56.23;99471.53;5018050;28;20056;-74
2022/04/20 01:07:12;;;;;;;4.25;2.95;;;;;;;6.59;56.39;99473.41;5005813;28;20107;-70
2022/04/20 01:09:52;;;;;;;4.40;2.17;;;;;;;6.68;55.86;99471.09;5002505;28;20131;-73
2022/04/20 01:12:36;;;;;;;3.58;2.58;;;;;;;6.63;55.19;99478.47;5038653;28;20032;-76
2022/04/20 01:15:21;;;;;;;7.13;3.20;;;;;;;6.55;55.09;99470.09;5025693;28;20037;-73
2022/04/20 01:18:13;;;;;;;;;;;;;;;6.54;55.52;99471.91;5011756;28;20045;-76
2022/04/20 01:20:56;;;;;;;2.13;1.92;;;;;;;6.57;54.79;99478.81;5048046;28;19927;-74
2022/04/20 01:23:50;;;;;;;3.00;2.65;;;;;;;6.43;54.86;99489.34;5021107;28;20105;-78
2022/04/20 01:26:29;;;;;;;10.30;3.47;;;;;;;6.35;55.07;99495.06;5040003;28;20025;-75
2022/04/20 01:29:20;;;;;;;3.97;2.67;;;;;;;6.31;55.36;99496.19;4940664;28;20043;-77
2022/04/20 01:31:54;;;;;;;4.97;2.55;;;;;;;6.43;54.80;99497.31;4957423;28;20048;-70
2022/04/20 01:34:45;;;;;;;4.55;3.05;;;;;;;6.34;54.70;99508.38;4952306;28;20058;-73
2022/04/20 01:37:10;;;;;;;5.78;2.80;;;;;;;6.25;55.30;99491.22;4940490;28;20062;-75
2022/04/20 01:39:36;;;;;;;4.63;2.88;;;;;;;6.27;55.06;99489.34;4937747;29;20062;-77
2022/04/20 01:42:00;;;;;;;4.28;2.47;;;;;;;6.19;55.01;99479.22;4940945;28;20047;-75
2022/04/20 01:44:26;;;;;;;13.32;2.95;;;;;;;6.13;54.87;99479.53;4956725;28;20046;-76
2022/04/20 01:47:01;;;;;;;4.53;2.80;;;;;;;6.11;55.16;99470.81;4960460;28;20043;-69
2022/04/20 01:49:34;;;;;;;2.72;2.50;;;;;;;6.08;55.42;99484.25;4949621;28;20042;-69
2022/04/20 01:52:02;;;;;;;2.55;1.95;;;;;;;6.13;54.47;99474.25;4954088;28;20120;-75
2022/04/20 01:54:56;;;;;;;3.35;2.58;;;;;;;6.25;53.78;99462.13;4947718;28;20100;-73
2022/04/20 01:57:47;;;;;;;3.50;2.13;;;;;;;6.13;53.31;99458.38;4917964;28;20111;-73
2022/04/20 02:00:17;;;;;;;4.65;2.63;;;;;;;6.06;53.61;99470.25;4920426;29;20051;-75
2022/04/20 02:02:55;;;;;;;4.07;2.58;;;;;;;6.05;53.62;99463.25;4904571;28;20046;-75
2022/04/20 02:05:23;;;;;;;3.80;2.45;;;;;;;6.00;53.39;99454.69;4935333;28;20080;-71
2022/04/20 02:07:53;;;;;;;3.05;2.40;;;;;;;5.99;53.41;99452.97;4957445;28;20054;-71
2022/04/20 02:10:26;;;;;;;5.45;2.22;;;;;;;6.02;53.10;99465.19;4942310;28;20134;-63
2022/04/20 02:12:51;;;;;;;4.78;2.50;;;;;;;5.99;53.13;99458.28;4930716;28;20047;-72
2022/04/20 02:15:45;;;;;;;4.07;2.25;;;;;;;5.99;52.72;99454.78;4897660;29;20056;-70
2022/04/20 02:18:29;;;;;;;6.07;3.03;;;;;;;5.95;52.71;99455.91;4895361;29;20098;-65
2022/04/20 02:21:04;;;;;;;3.33;2.50;;;;;;;5.92;52.94;99454.28;4904916;29;20095;-64
2022/04/20 02:23:29;;;;;;;4.93;3.10;;;;;;;5.87;52.89;99456.28;4898997;29;20051;-64
2022/04/20 02:25:54;;;;;;;2.97;2.13;;;;;;;5.81;52.76;99460.13;4896347;29;20641;-64
2022/04/20 02:28:20;;;;;;;3.22;2.20;;;;;;;5.83;52.93;99455.59;4897494;29;20511;-64
2022/04/20 02:30:45;;;;;;;5.38;2.80;;;;;;;5.80;53.06;99468.16;4888632;29;20043;-74
2022/04/20 02:33:14;;;;;;;7.95;3.08;;;;;;;5.80;52.35;99469.00;4904460;29;20165;-73
2022/04/20 02:35:40;;;;;;;6.20;2.15;;;;;;;5.94;51.54;99463.00;4907557;28;20051;-70
2022/04/20 02:38:06;;;;;;;2.65;1.92;;;;;;;5.95;50.99;99463.84;4938441;28;20557;-63
2022/04/20 02:40:31;;;;;;;3.30;2.53;;;;;;;5.94;50.63;99457.69;4938360;28;20060;-69
2022/04/20 02:42:56;;;;;;;3.30;2.25;;;;;;;6.09;48.73;99461.28;4938223;28;20047;-64
2022/04/20 02:45:21;;;;;;;5.25;2.40;;;;;;;6.00;49.44;99453.84;4938402;28;20054;-67
2022/04/20 02:47:46;;;;;;;3.63;2.63;;;;;;;5.98;49.43;99453.91;4937988;28;20149;-68
2022/04/20 02:50:11;;;;;;;5.22;2.83;;;;;;;6.08;48.74;99468.38;4921766;28;20190;-65
2022/04/20 02:52:36;;;;;;;2.97;2.25;;;;;;;6.11;48.75;99469.97;4975164;28;20057;-67
2022/04/20 02:55:01;;;;;;;6.03;2.70;;;;;;;6.22;48.55;99466.72;5008853;28;20057;-65
2022/04/20 02:57:26;;;;;;;3.38;2.58;;;;;;;6.30;48.57;99465.38;5016654;28;20049;-64
2022/04/20 02:59:52;;;;;;;4.55;2.30;;;;;;;6.42;47.71;99463.81;5001449;28;20045;-74
2022/04/20 03:02:17;;;;;;;5.35;2.80;;;;;;;6.52;47.71;99476.44;4986749;28;20037;-74
2022/04/20 03:04:42;;;;;;;9.18;2.63;;;;;;;6.65;46.51;99475.72;4988658;28;20478;-75
2022/04/20 03:07:08;;;;;;;2.58;2.10;;;;;;;6.75;46.69;99468.94;5000851;28;20045;-68
2022/04/20 03:09:41;;;;;;;3.75;2.20;;;;;;;6.86;45.74;99475.31;4985609;28;20416;-72
2022/04/20 03:12:08;;;;;;;2.75;2.15;;;;;;;6.99;45.14;99479.91;5018059;28;20045;-72
2022/04/20 03:14:35;;;;;;;4.30;2.25;;;;;;;7.10;44.70;99475.66;5017847;28;20049;-71
2022/04/20 03:17:00;;;;;;;4.32;2.28;;;;;;;7.21;44.00;99480.31;5018095;28;20049;-73
2022/04/20 03:19:25;;;;;;;4.05;2.10;;;;;;;7.36;42.94;99481.16;4995284;28;20051;-66
2022/04/20 03:21:51;;;;;;;2.78;1.83;;;;;;;7.45;43.45;99481.47;5007652;28;20044;-69
2022/04/20 03:24:15;;;;;;;4.88;1.98;;;;;;;7.54;42.61;99483.56;5008909;28;20072;-65
2022/04/20 03:26:58;;;;;;;2.15;1.90;;;;;;;7.68;41.73;99479.19;5015825;28;20138;-68
2022/04/20 03:29:32;;;;;;;4.13;2.45;;;;;;;7.79;40.79;99482.06;4995628;28;20555;-66
2022/04/20 03:32:05;;;;;;;3.70;2.45;;;;;;;7.90;40.35;99482.22;5030199;28;20395;-63
2022/04/20 03:34:31;;;;;;;3.05;1.83;;;;;;;8.06;38.40;99485.59;5015445;28;20079;-68
2022/04/20 03:36:56;;;;;;;3.92;2.05;;;;;;;8.11;39.05;99475.56;5017141;28;20530;-65
2022/04/20 03:39:21;;;;;;;7.78;1.85;;;;;;;8.33;37.01;99489.19;5003502;28;20143;-70
2022/04/20 03:41:46;;;;;;;5.13;2.42;;;;;;;8.31;36.70;99477.81;5020391;28;20455;-68
2022/04/20 03:44:10;;;;;;;4.85;1.75;;;;;;;8.42;36.56;99473.59;5006261;28;20498;-67
2022/04/20 03:46:35;;;;;;;3.80;2.10;;;;;;;8.45;36.75;99466.28;5017449;28;20072;-64
2022/04/20 03:49:00;;;;;;;3.30;1.88;;;;;;;8.60;35.82;99475.03;5018326;28;20044;-70
2022/04/20 03:51:25;;;;;;;7.43;1.85;;;;;;;8.67;35.73;99471.03;5017092;28;20047;-63
2022/04/20 03:53:51;;;;;;;1.95;1.80;;;;;;;8.80;35.65;99474.59;4999787;28;20175;-64
2022/04/20 03:56:16;;;;;;;4.57;1.92;;;;;;;8.95;34.59;99473.53;5034719;28;20103;-63
2022/04/20 03:58:40;;;;;;;2.17;1.10;;;;;;;9.07;34.90;99469.19;5039140;28;20041;-66
2022/04/20 04:01:05;;;;;;;5.22;2.40;;;;;;;9.03;34.16;99460.56;5024344;28;20110;-64
2022/04/20 04:03:30;;;;;;;4.22;2.50;;;;;;;9.13;34.91;99463.47;5021119;28;20076;-63
2022/04/20 04:06:01;;;;;;;4.55;2.40;;;;;;;9.28;34.65;99472.19;5016583;28;20126;-64
2022/04/20 04:08:26;;;;;;;2.53;1.80;;;;;;;9.43;33.79;99452.50;5033164;28;20045;-66
2022/04/20 04:10:52;;;;;;;5.80;2.15;;;;;;;9.59;33.99;99462.94;5032861;28;20045;-65
2022/04/20 04:13:17;;;;;;;3.70;2.50;;;;;;;9.70;33.66;99453.25;4999161;28;20043;-63
2022/04/20 04:15:52;;;;;;;6.63;2.10;;;;;;;9.80;33.60;99454.28;5032554;28;20083;-65
2022/04/20 04:18:17;;;;;;;9.07;2.60;;;;;;;9.91;33.18;99444.69;5016036;28;20049;-68
2022/04/20 04:20:45;;;;;;;3.13;1.85;;;;;;;10.02;33.02;99436.78;5032344;28;20048;-65
2022/04/20 04:23:12;;;;;;;4.90;2.42;;;;;;;10.16;33.19;99433.94;5015638;28;20049;-65
2022/04/20 04:25:38;;;;;;;4.90;2.00;;;;;;;10.28;32.53;99443.72;5016865;28;20128;-68
2022/04/20 04:28:04;;;;;;;5.35;2.17;;;;;;;10.40;32.49;99453.47;5017705;28;20044;-65
2022/04/20 04:30:29;;;;;;;3.22;1.80;;;;;;;10.52;32.50;99433.06;4987196;28;20041;-77
2022/04/20 04:33:02;;;;;;;6.10;2.15;;;;;;;10.67;32.76;99428.41;5019475;28;20049;-64
2022/04/20 04:35:28;;;;;;;2.55;1.83;;;;;;;10.84;32.05;99439.50;5036255;28;20055;-67
2022/04/20 04:37:53;;;;;;;2.83;1.60;;;;;;;11.05;31.95;99442.38;5017190;28;20048;-65
2022/04/20 04:40:21;;;;;;;5.85;2.85;;;;;;;11.21;31.80;99439.34;5016491;28;20041;-64
2022/04/20 04:42:47;;;;;;;4.32;2.20;;;;;;;11.32;31.67;99441.19;5016132;28;20045;-64
2022/04/20 04:50:46;;;;;;;7.32;2.10;;;;;;;11.51;30.83;99438.81;5032213;28;20080;-65
2022/04/20 04:53:11;;;;;;;9.48;2.22;;;;;;;11.64;30.85;99453.72;4999486;28;20049;-64
2022/04/20 04:55:36;;;;;;;3.80;2.10;;;;;;;11.80;30.22;99453.41;5015931;28;20092;-65
2022/04/20 04:58:02;;;;;;;3.47;2.10;;;;;;;11.95;30.09;99460.19;5015010;28;20506;-65
2022/04/20 05:00:27;;;;;;;5.65;1.88;;;;;;;12.07;29.34;99460.19;5032054;28;20492;-64
2022/04/20 05:03:21;;;;;;;4.10;1.58;;;;;;;12.34;29.09;99468.63;4974689;28;20057;-64
2022/04/20 05:05:47;;;;;;;10.00;1.92;;;;;;;12.39;28.26;99471.78;4974596;28;20851;-65
2022/04/20 05:08:13;;;;;;;6.05;2.28;;;;;;;12.70;27.60;99470.94;4974366;28;20053;-66
2022/04/20 05:10:39;;;;;;;6.00;1.63;;;;;;;13.14;27.20;99481.59;4974764;28;20038;-66
2022/04/20 05:13:06;;;;;;;4.72;2.42;;;;;;;13.55;26.09;99491.44;4974628;28;20058;-65
2022/04/20 05:15:32;;;;;;;7.20;2.65;;;;;;;13.87;26.25;99496.72;4974031;28;20128;-66
2022/04/20 05:17:57;;;;;;;11.38;2.45;;;;;;;14.14;25.02;99483.56;4957495;28;20046;-66
2022/04/20 05:20:22;;;;;;;5.28;2.70;;;;;;;14.22;24.29;99483.72;4974914;28;20400;-66
2022/04/20 05:22:48;;;;;;;4.95;1.20;;;;;;;14.31;24.91;99487.44;4974652;28;20429;-67
2022/04/20 05:25:14;;;;;;;9.02;2.28;;;;;;;14.22;24.22;99470.31;4973986;28;20133;-66
2022/04/20 05:27:39;;;;;;;3.17;2.20;;;;;;;14.40;24.81;99497.38;4974706;28;20159;-67
2022/04/20 05:30:09;;;;;;;6.47;2.08;;;;;;;14.42;21.32;99490.03;4973887;28;20610;-65
2022/04/20 05:32:35;;;;;;;5.18;2.08;;;;;;;14.13;20.76;99496.13;4957518;28;20060;-66
2022/04/20 05:35:03;;;;;;;8.77;2.42;;;;;;;13.79;21.49;99498.22;4975174;28;20034;-64
2022/04/20 05:42:56;;;;;;;2.85;1.40;;;;;;;14.07;21.61;99512.75;5033857;28;20040;-64
2022/04/20 05:45:21;;;;;;;5.43;1.65;;;;;;;14.06;21.01;99494.13;5018031;28;20076;-65
2022/04/20 05:47:53;;;;;;;4.18;1.80;;;;;;;14.07;20.64;99523.47;5009022;28;20449;-64
2022/04/20 05:50:19;;;;;;;3.80;1.55;;;;;;;14.15;20.20;99488.78;4983489;28;20072;-64
2022/04/20 05:52:44;;;;;;;4.90;1.83;;;;;;;14.36;20.53;99506.63;5001039;28;20044;-64
2022/04/20 05:55:10;;;;;;;9.48;2.30;;;;;;;14.79;20.95;99498.25;5000805;28;20045;-66
2022/04/20 05:57:37;;;;;;;4.85;2.20;;;;;;;15.23;19.84;99496.88;5017207;28;20408;-64
2022/04/20 06:00:04;;;;;;;3.42;1.85;;;;;;;15.82;19.77;99514.59;5017168;28;20410;-64
2022/04/20 06:02:33;;;;;;;5.35;1.73;;;;;;;16.23;19.38;99484.59;5019132;28;20043;-64
2022/04/20 06:04:58;;;;;;;5.43;2.35;;;;;;;16.24;18.51;99505.13;5000458;28;20159;-65
2022/04/20 06:07:43;;;;;;;;;;;;;;;16.27;19.22;99512.03;5021795;28;20079;-65
2022/04/20 06:10:23;;;;;;;3.05;1.92;;;;;;;16.62;18.65;99530.13;5004830;28;19928;-65
2022/04/20 06:12:55;;;;;;;3.00;2.13;;;;;;;16.88;18.30;99514.94;5021739;28;20049;-65
2022/04/20 06:15:38;;;;;;;4.55;2.67;;;;;;;17.67;18.17;99515.00;5002075;28;20059;-65
2022/04/20 06:18:12;;;;;;;5.30;1.73;;;;;;;18.35;18.00;99519.59;5016808;28;20045;-65
2022/04/20 06:20:40;;;;;;;4.40;1.95;;;;;;;18.48;17.12;99530.78;5017493;28;20049;-64
2022/04/20 06:23:40;;;;;;;4.70;1.80;;;;;;;18.26;16.83;99529.50;5000157;28;20550;-67
2022/04/20 06:26:17;;;;;;;3.20;1.85;;;;;;;18.54;17.11;99529.28;4999226;28;20514;-65
2022/04/20 06:28:55;;;;;;;7.20;2.50;;;;;;;18.67;17.41;99527.84;4994422;28;20056;-66
2022/04/20 06:31:44;;;;;;;6.53;2.05;;;;;;;18.83;16.84;99537.88;4998792;28;20058;-66
2022/04/20 06:34:35;;;;;;;5.93;2.17;;;;;;;18.82;16.98;99542.41;4973977;28;20050;-66
2022/04/20 06:37:27;;;;;;;8.45;2.10;;;;;;;19.11;16.89;99531.16;4978527;28;20053;-66
2022/04/20 06:40:15;;;;;;;7.57;1.92;;;;;;;19.38;17.06;99532.72;4976334;28;20046;-66
2022/04/20 06:42:58;;;;;;;1.73;1.30;;;;;;;19.39;16.93;99529.00;4976303;28;20046;-67
2022/04/20 06:45:34;;;;;;;4.60;2.25;;;;;;;19.75;17.33;99534.91;4975313;28;20061;-64
2022/04/20 06:48:33;;;;;;;1.95;1.73;;;;;;;20.41;17.05;99520.25;4974624;28;20181;-65
2022/04/20 06:58:31;;;;;;;3.53;2.13;;;;;;;20.63;16.58;99518.63;4940955;28;20137;-65
2022/04/20 06:59:58;;;;;;;5.88;2.92;;;;;;;22.01;15.78;99502.13;4930289;28;20054;-64
2022/04/20 07:02:39;;;;;;;4.15;2.55;;;;;;;22.19;15.42;99501.78;4945640;28;20053;-65
2022/04/20 07:05:36;;;;;;;7.10;2.45;;;;;;;22.49;15.34;99507.19;4906261;29;20048;-65
2022/04/20 07:08:22;;;;;;;3.17;1.92;;;;;;;22.97;15.30;99492.97;4893442;29;20083;-65
2022/04/20 07:10:47;;;;;;;6.97;2.55;;;;;;;23.44;15.05;99475.22;4895831;29;20119;-65
2022/04/20 07:13:14;;;;;;;9.02;2.72;;;;;;;23.54;14.90;99473.03;4896099;29;20415;-66
2022/04/20 07:15:39;;;;;;;6.53;2.40;;;;;;;23.84;14.70;99473.66;4899088;29;20180;-65
2022/04/20 07:18:05;;;;;;;2.03;1.58;;;;;;;23.84;14.20;99482.66;4899720;29;20044;-65
2022/04/20 07:20:48;;;;;;;12.18;2.20;;;;;;;23.85;14.60;99494.41;4899280;29;20058;-66
2022/04/20 07:23:33;;;;;;;5.95;2.30;;;;;;;23.29;14.81;99469.00;4824854;29;20072;-65
2022/04/20 07:26:05;;;;;;;11.15;2.85;;;;;;;23.79;15.02;99489.75;4824933;29;20545;-66
2022/04/20 07:28:50;;;;;;;5.60;2.60;;;;;;;23.83;14.23;99482.88;4885893;29;20579;-66
2022/04/20 07:31:37;;;;;;;7.47;2.58;;;;;;;24.49;13.92;99486.03;4892061;29;20809;-66
2022/04/20 07:34:21;;;;;;;7.72;2.78;;;;;;;25.21;14.03;99482.69;4898936;29;20106;-65
2022/04/20 07:37:20;;;;;;;6.40;1.85;;;;;;;26.70;13.82;99483.78;4861473;29;20040;-65
2022/04/20 07:40:21;;;;;;;7.40;2.67;;;;;;;26.40;12.42;99486.22;4821736;29;20577;-66
2022/04/20 07:43:03;;;;;;;12.40;3.60;;;;;;;26.51;12.51;99492.91;4806150;29;20580;-66
2022/04/20 07:45:51;;;;;;;13.20;2.80;;;;;;;26.12;12.16;99494.66;4805911;29;20426;-66
2022/04/20 07:48:32;;;;;;;3.78;2.63;;;;;;;26.55;12.79;99483.22;4806071;29;20065;-65
2022/04/20 07:51:02;;;;;;;7.60;2.95;;;;;;;26.41;12.45;99481.59;4790739;29;20172;-66
2022/04/20 07:53:44;;;;;;;4.40;2.20;;;;;;;26.64;12.25;99474.53;4806296;29;20406;-67
2022/04/20 07:56:14;;;;;;;8.30;3.83;;;;;;;26.81;12.25;99483.09;4805904;29;20073;-65
2022/04/20 07:59:04;;;;;;;10.10;3.25;;;;;;;26.59;11.60;99465.31;4788296;29;20198;-66
2022/04/20 08:01:58;;;;;;;4.33;2.23;;;;;;;26.91;11.95;99478.00;4823479;29;20057;-66
2022/04/20 08:04:42;;;;;;;6.88;2.95;;;;;;;26.44;11.66;99487.44;4824879;29;20057;-66
2022/04/20 08:07:19;;;;;;;4.18;2.28;;;;;;;26.59;11.92;99474.38;4808749;29;20061;-66
2022/04/20 08:09:44;;;;;;;8.55;2.45;;;;;;;26.91;12.13;99472.50;4808812;29;20129;-65
2022/04/20 08:12:09;;;;;;;6.40;2.97;;;;;;;27.39;11.85;99481.06;4845678;29;20048;-66
2022/04/20 08:14:34;;;;;;;3.40;2.53;;;;;;;27.29;11.50;99475.25;4912643;28;20094;-64
2022/04/20 08:17:12;;;;;;;2.50;2.30;;;;;;;26.59;11.58;99462.59;4939997;28;20090;-64
2022/04/20 08:19:40;;;;;;;4.82;2.78;;;;;;;27.08;11.99;99462.78;4937165;28;20575;-65
2022/04/20 08:22:28;;;;;;;8.07;3.22;;;;;;;27.54;10.94;99449.78;4934949;28;20050;-65
2022/04/20 08:24:53;;;;;;;5.32;2.35;;;;;;;28.03;11.17;99482.63;4936894;28;20047;-64
2022/04/20 08:27:20;;;;;;;8.63;2.95;;;;;;;27.49;11.10;99461.41;4919375;28;20066;-64
2022/04/20 08:29:46;;;;;;;3.03;2.35;;;;;;;27.80;11.01;99457.78;4936546;28;20057;-65
2022/04/20 08:32:11;;;;;;;4.05;2.70;;;;;;;28.49;11.02;99457.47;4936595;28;20039;-65
2022/04/20 08:34:35;;;;;;;7.75;3.50;;;;;;;29.12;10.18;99479.00;4904021;28;20560;-65
2022/04/20 08:37:00;;;;;;;3.15;2.63;;;;;;;29.15;9.92;99464.81;5013734;28;20053;-65
2022/04/20 08:39:25;;;;;;;7.40;3.08;;;;;;;28.81;10.04;99451.81;5017552;28;20048;-65
2022/04/20 08:41:50;;;;;;;5.00;2.45;;;;;;;29.58;9.93;99453.59;5020955;28;20052;-65
2022/04/20 08:44:25;;;;;;;5.15;2.88;;;;;;;30.58;9.77;99464.47;5025763;28;20037;-65
2022/04/20 08:46:50;;;;;;;8.18;2.65;;;;;;;30.50;9.05;99470.28;5025875;28;20070;-65
2022/04/20 08:49:15;;;;;;;11.07;3.15;;;;;;;29.98;9.20;99461.16;5025050;28;20092;-65
2022/04/20 08:54:24;;;;;;;3.47;3.22;;;;;;;30.13;9.31;99455.19;5017526;28;20041;-67
2022/04/20 08:59:35;;;;;;;2.25;2.10;;;;;;;29.50;9.02;99461.34;4998581;28;20033;-65
2022/04/20 09:02:00;;;;;;;5.45;2.60;;;;;;;27.99;9.52;99475.13;5018681;28;20033;-65
2022/04/20 09:04:25;;;;;;;5.10;2.85;;;;;;;27.86;9.60;99475.25;5015985;28;20139;-66
2022/04/20 09:06:50;;;;;;;4.65;3.00;;;;;;;27.49;9.70;99458.66;5016355;28;20143;-65
2022/04/20 09:09:18;;;;;;;6.63;2.83;;;;;;;27.09;9.95;99471.78;5016312;28;20037;-64
2022/04/20 09:11:42;;;;;;;4.80;2.08;;;;;;;27.02;9.80;99471.00;5016659;28;20076;-64
2022/04/20 09:14:14;;;;;;;4.55;2.83;;;;;;;27.48;9.58;99465.19;5014833;28;20072;-64
2022/04/20 09:16:41;;;;;;;3.90;2.72;;;;;;;28.00;9.60;99479.50;5015016;28;20056;-65
2022/04/20 09:19:06;;;;;;;2.20;1.98;;;;;;;28.62;9.34;99469.34;5016756;28;20080;-65
2022/04/20 09:21:32;;;;;;;2.85;2.08;;;;;;;28.81;9.25;99465.53;5016855;28;20056;-65
2022/04/20 09:24:07;;;;;;;5.57;2.20;;;;;;;28.02;9.22;99444.50;5019807;28;20044;-65
2022/04/20 09:26:32;;;;;;;4.22;2.38;;;;;;;27.91;9.60;99461.69;5025507;28;20053;-65
2022/04/20 09:29:10;;;;;;;10.10;3.03;;;;;;;28.58;9.53;99463.47;5025054;28;20044;-65
2022/04/20 09:31:46;;;;;;;3.70;2.90;;;;;;;29.26;9.04;99468.66;5024710;28;20087;-66
2022/04/20 09:34:30;;;;;;;5.78;2.65;;;;;;;29.67;9.11;99467.84;5004039;28;20041;-65
2022/04/20 09:36:55;;;;;;;12.50;3.03;;;;;;;29.11;8.81;99458.16;5003678;28;20114;-65
2022/04/20 09:39:21;;;;;;;15.02;3.13;;;;;;;28.66;8.58;99456.84;5016889;28;20087;-66
2022/04/20 09:42:02;;;;;;;8.38;2.90;;;;;;;28.76;9.29;99459.88;4998497;28;20519;-65
2022/04/20 09:44:30;;;;;;;7.20;3.10;;;;;;;29.54;8.85;99457.06;5016676;28;20049;-65
2022/04/20 09:50:00;;;;;;;4.30;2.80;;;;;;;30.78;8.15;99466.78;5020809;28;20048;-65
2022/04/20 09:52:44;;;;;;;3.42;2.42;;;;;;;30.81;7.90;99469.06;5013986;28;20099;-66
2022/04/20 09:55:11;;;;;;;;;;;;;;;30.75;7.97;99463.66;5031338;28;20049;-65
2022/04/20 09:57:37;;;;;;;3.15;2.60;;;;;;;30.57;8.38;99472.94;5031951;28;19916;-67
2022/04/20 10:00:10;;;;;;;2.83;2.47;;;;;;;30.68;7.93;99455.56;5012103;28;20044;-69
2022/04/20 10:02:48;;;;;;;5.75;3.40;;;;;;;30.76;8.03;99466.19;5031065;28;20037;-66
2022/04/20 10:05:14;;;;;;;6.15;2.70;;;;;;;30.38;7.95;99432.88;5031020;28;20053;-65
2022/04/20 10:07:39;;;;;;;7.57;3.13;;;;;;;30.19;8.22;99437.72;5033311;28;20045;-65
2022/04/20 10:10:05;;;;;;;8.23;3.00;;;;;;;30.65;8.44;99447.78;5032112;28;20055;-66
2022/04/20 10:12:31;;;;;;;8.25;2.95;;;;;;;31.42;7.69;99434.38;5009536;28;20049;-66
2022/04/20 10:17:46;;;;;;;7.72;3.15;;;;;;;29.64;8.87;99435.34;5019688;28;20106;-65
2022/04/20 10:20:12;;;;;;;6.60;3.20;;;;;;;26.92;9.82;99448.72;5016764;28;20618;-65
2022/04/20 10:22:39;;;;;;;4.95;2.78;;;;;;;24.53;11.13;99460.03;5015976;28;20048;-65
2022/04/20 10:25:05;;;;;;;2.97;2.50;;;;;;;22.51;12.67;99435.34;5014868;28;20041;-66
2022/04/20 10:28:02;;;;;;;5.97;3.17;;;;;;;21.38;13.65;99442.88;4998141;28;20045;-65
2022/04/20 10:30:42;;;;;;;9.85;2.67;;;;;;;20.54;13.84;99466.31;5019150;28;20466;-64
2022/04/20 10:33:16;;;;;;;3.15;2.40;;;;;;;19.88;14.27;99439.69;4985816;28;20044;-64
2022/04/20 10:36:01;;;;;;;6.15;2.30;;;;;;;18.82;15.36;99439.78;4998048;28;20462;-65
2022/04/20 10:38:31;;;;;;;8.75;2.83;;;;;;;18.06;16.32;99449.81;4981507;28;20102;-65
2022/04/20 10:41:10;;;;;;;3.95;1.90;;;;;;;17.64;16.54;99439.81;4997512;28;20045;-64
2022/04/20 10:43:39;;;;;;;3.85;2.30;;;;;;;17.25;16.67;99438.53;4999010;28;20049;-64
2022/04/20 10:46:18;;;;;;;8.43;2.88;;;;;;;17.08;17.16;99425.91;4997871;28;20049;-65
2022/04/20 10:48:52;;;;;;;4.45;1.88;;;;;;;16.97;17.32;99422.47;5015841;28;20124;-65
2022/04/20 10:51:19;;;;;;;5.80;2.55;;;;;;;16.79;17.38;99435.09;5019221;28;20049;-67
2022/04/20 10:53:48;;;;;;;5.70;2.25;;;;;;;16.64;17.47;99442.88;5000213;28;20036;-64
2022/04/20 10:56:13;;;;;;;2.58;1.75;;;;;;;16.47;17.22;99435.59;5025284;28;20421;-64
2022/04/20 10:58:51;;;;;;;7.03;2.03;;;;;;;16.37;17.62;99442.00;5019483;28;20457;-68
2022/04/20 11:01:15;;;;;;;5.07;1.80;;;;;;;16.05;17.79;99440.66;5020794;28;20044;-64
2022/04/20 11:03:58;;;;;;;4.30;1.80;;;;;;;16.07;18.03;99446.72;5028838;28;20067;-64
2022/04/20 11:06:49;;;;;;;3.22;1.80;;;;;;;15.92;18.49;99448.19;5019109;28;20052;-66
2022/04/20 11:09:42;;;;;;;2.85;1.98;;;;;;;15.84;19.06;99429.28;5019614;28;20494;-67
2022/04/20 11:21:03;;;;;;;3.17;1.52;;;;;;;15.38;20.13;99422.91;5002662;28;20522;-64
2022/04/20 11:23:57;;;;;;;4.57;2.50;;;;;;;15.39;20.01;99416.53;5008176;28;20467;-65
2022/04/20 11:26:44;;;;;;;5.55;2.03;;;;;;;15.51;20.12;99399.25;5017652;28;20527;-65
2022/04/20 11:29:10;;;;;;;2.65;1.55;;;;;;;15.55;19.95;99406.06;4995279;28;20415;-66
2022/04/20 11:31:37;;;;;;;3.20;1.92;;;;;;;15.38;19.78;99409.47;5019217;28;20127;-64
2022/04/20 11:34:03;;;;;;;3.45;2.00;;;;;;;15.17;20.08;99398.09;5000674;28;20095;-66
2022/04/20 11:36:28;;;;;;;5.18;2.35;;;;;;;15.14;19.87;99401.03;5021850;28;20060;-65
2022/04/20 11:38:53;;;;;;;6.25;1.98;;;;;;;15.14;20.30;99412.63;4995787;28;20105;-66
2022/04/20 11:41:19;;;;;;;1.23;1.23;;;;;;;15.35;20.46;99414.31;5020006;28;20048;-65
2022/04/20 11:43:44;;;;;;;6.05;2.25;;;;;;;15.18;20.46;99400.63;5018012;28;20036;-64
2022/04/20 11:46:14;;;;;;;5.07;2.38;;;;;;;15.17;20.79;99400.78;5004318;28;20624;-64
2022/04/20 11:48:55;;;;;;;5.00;2.28;;;;;;;15.29;20.58;99385.34;5023310;28;20036;-64
2022/04/20 11:51:29;;;;;;;5.15;2.42;;;;;;;15.16;20.28;99397.22;5016499;28;20051;-64
2022/04/20 11:53:54;;;;;;;2.80;1.67;;;;;;;15.34;20.38;99389.28;5015539;28;20040;-65
2022/04/20 11:56:48;;;;;;;11.18;1.98;;;;;;;15.25;20.95;99379.41;4989165;28;20526;-65
2022/04/20 11:59:13;;;;;;;5.18;2.13;;;;;;;15.12;20.95;99376.22;5011750;28;20045;-66
2022/04/20 12:01:39;;;;;;;4.03;2.10;;;;;;;15.08;20.79;99386.38;5017591;28;20045;-64
2022/04/20 12:04:15;;;;;;;3.70;1.85;;;;;;;15.28;20.87;99376.44;5016710;28;20059;-69
2022/04/20 12:07:00;;;;;;;2.47;2.13;;;;;;;15.21;20.63;99359.22;5022126;28;20048;-65
2022/04/20 12:09:31;;;;;;;2.58;1.75;;;;;;;15.37;20.84;99374.69;5018128;28;20033;-70
2022/04/20 12:12:01;;;;;;;3.72;1.80;;;;;;;15.15;21.24;99366.00;5013680;28;20053;-69
2022/04/20 12:14:37;;;;;;;5.65;2.13;;;;;;;15.15;21.55;99355.25;5002369;28;20059;-71
2022/04/20 12:17:06;;;;;;;6.13;2.22;;;;;;;15.16;21.08;99366.84;5017412;28;20048;-71
2022/04/20 12:19:34;;;;;;;3.53;1.80;;;;;;;15.02;21.28;99357.41;5019022;28;20364;-65
2022/04/20 12:22:11;;;;;;;2.13;1.65;;;;;;;15.01;21.15;99365.63;5016610;28;20052;-70
2022/04/20 12:24:47;;;;;;;5.85;2.13;;;;;;;15.08;21.11;99364.06;5016129;28;20451;-65
2022/04/20 12:27:17;;;;;;;2.58;1.60;;;;;;;15.20;21.55;99353.00;5020163;28;20041;-65
2022/04/20 12:29:44;;;;;;;4.93;2.50;;;;;;;15.16;21.36;99367.69;5018348;28;20094;-63
2022/04/20 12:32:09;;;;;;;5.47;2.33;;;;;;;15.25;21.15;99349.84;5017010;28;20075;-66
2022/04/20 12:34:34;;;;;;;5.80;1.73;;;;;;;15.20;21.99;99346.78;5017323;28;20037;-70
2022/04/20 12:37:13;;;;;;;3.40;1.17;;;;;;;15.39;21.83;99335.09;5017753;28;20041;-67